sensor_id;sensor_type;location;lat;lon;timestamp;P1;durP1;ratioP1;P2;durP2;ratioP2
45728;SDS011;31439;53.512;10.206;2022-08-07T00:00:33;9.65;;;7.18;;
45728;SDS011;31439;53.512;10.206;2022-08-07T00:02:59;11.18;;;7.70;;
45728;SDS011;31439;53.512;10.206;2022-08-07T00:05:25;9.00;;;7.43;;
45728;SDS011;31439;53.512;10.206;2022-08-07T00:07:52;11.70;;;7.82;;
45728;SDS011;31439;53.512;10.206;2022-08-07T00:10:19;12.07;;;8.05;;
45728;SDS011;31439;53.512;10.206;2022-08-07T00:12:47;11.73;;;7.82;;
45728;SDS011;31439;53.512;10.206;2022-08-07T00:15:13;13.93;;;7.93;;
45728;SDS011;31439;53.512;10.206;2022-08-07T00:17:39;9.73;;;7.93;;
45728;SDS011;31439;53.512;10.206;2022-08-07T00:20:04;12.48;;;8.77;;
45728;SDS011;31439;53.512;10.206;2022-08-07T00:22:30;16.20;;;8.55;;
45728;SDS011;31439;53.512;10.206;2022-08-07T00:24:56;12.48;;;7.97;;
45728;SDS011;31439;53.512;10.206;2022-08-07T00:27:21;11.05;;;7.97;;
45728;SDS011;31439;53.512;10.206;2022-08-07T00:29:47;12.90;;;8.35;;
45728;SDS011;31439;53.512;10.206;2022-08-07T00:32:13;13.13;;;8.35;;
45728;SDS011;31439;53.512;10.206;2022-08-07T00:34:39;12.43;;;8.68;;
45728;SDS011;31439;53.512;10.206;2022-08-07T00:37:05;11.15;;;8.02;;
45728;SDS011;31439;53.512;10.206;2022-08-07T00:39:31;11.70;;;8.18;;
45728;SDS011;31439;53.512;10.206;2022-08-07T00:41:58;10.73;;;8.10;;
45728;SDS011;31439;53.512;10.206;2022-08-07T00:44:24;12.85;;;8.57;;
45728;SDS011;31439;53.512;10.206;2022-08-07T00:46:50;11.05;;;8.63;;
45728;SDS011;31439;53.512;10.206;2022-08-07T00:49:16;13.13;;;9.07;;
45728;SDS011;31439;53.512;10.206;2022-08-07T00:51:42;12.93;;;8.80;;
45728;SDS011;31439;53.512;10.206;2022-08-07T00:54:08;13.50;;;8.63;;
45728;SDS011;31439;53.512;10.206;2022-08-07T00:56:34;11.55;;;8.23;;
45728;SDS011;31439;53.512;10.206;2022-08-07T00:59:00;12.20;;;8.77;;
45728;SDS011;31439;53.512;10.206;2022-08-07T01:01:27;14.43;;;8.35;;
45728;SDS011;31439;53.512;10.206;2022-08-07T01:03:53;11.75;;;7.97;;
45728;SDS011;31439;53.512;10.206;2022-08-07T01:06:19;12.77;;;7.82;;
45728;SDS011;31439;53.512;10.206;2022-08-07T01:08:45;13.45;;;8.07;;
45728;SDS011;31439;53.512;10.206;2022-08-07T01:11:12;11.30;;;8.00;;
45728;SDS011;31439;53.512;10.206;2022-08-07T01:13:39;11.23;;;7.72;;
45728;SDS011;31439;53.512;10.206;2022-08-07T01:16:06;12.25;;;8.45;;
45728;SDS011;31439;53.512;10.206;2022-08-07T01:18:32;11.50;;;8.18;;
45728;SDS011;31439;53.512;10.206;2022-08-07T01:21:11;10.48;;;7.93;;
45728;SDS011;31439;53.512;10.206;2022-08-07T01:23:39;11.73;;;8.00;;
45728;SDS011;31439;53.512;10.206;2022-08-07T01:26:07;13.75;;;9.43;;
45728;SDS011;31439;53.512;10.206;2022-08-07T01:28:34;12.63;;;8.57;;
45728;SDS011;31439;53.512;10.206;2022-08-07T01:31:01;13.52;;;8.57;;
45728;SDS011;31439;53.512;10.206;2022-08-07T01:33:27;13.27;;;9.57;;
45728;SDS011;31439;53.512;10.206;2022-08-07T01:35:54;11.93;;;8.82;;
45728;SDS011;31439;53.512;10.206;2022-08-07T01:38:24;11.77;;;8.32;;
45728;SDS011;31439;53.512;10.206;2022-08-07T01:40:52;12.73;;;8.63;;
45728;SDS011;31439;53.512;10.206;2022-08-07T01:43:21;15.85;;;8.85;;
45728;SDS011;31439;53.512;10.206;2022-08-07T01:45:48;12.35;;;8.60;;
45728;SDS011;31439;53.512;10.206;2022-08-07T01:48:14;12.80;;;8.77;;
45728;SDS011;31439;53.512;10.206;2022-08-07T01:50:44;13.05;;;9.00;;
45728;SDS011;31439;53.512;10.206;2022-08-07T01:53:14;11.80;;;9.23;;
45728;SDS011;31439;53.512;10.206;2022-08-07T01:55:46;11.82;;;8.40;;
45728;SDS011;31439;53.512;10.206;2022-08-07T01:58:18;13.07;;;8.25;;
45728;SDS011;31439;53.512;10.206;2022-08-07T02:00:48;10.75;;;8.15;;
45728;SDS011;31439;53.512;10.206;2022-08-07T02:03:19;12.55;;;8.68;;
45728;SDS011;31439;53.512;10.206;2022-08-07T02:05:49;11.27;;;8.60;;
45728;SDS011;31439;53.512;10.206;2022-08-07T02:08:19;12.90;;;8.95;;
45728;SDS011;31439;53.512;10.206;2022-08-07T02:10:48;13.50;;;9.10;;
45728;SDS011;31439;53.512;10.206;2022-08-07T02:13:20;12.02;;;8.60;;
45728;SDS011;31439;53.512;10.206;2022-08-07T02:15:48;14.68;;;9.43;;
45728;SDS011;31439;53.512;10.206;2022-08-07T02:18:15;11.73;;;8.70;;
45728;SDS011;31439;53.512;10.206;2022-08-07T02:20:43;13.35;;;9.27;;
45728;SDS011;31439;53.512;10.206;2022-08-07T02:23:11;12.43;;;9.38;;
45728;SDS011;31439;53.512;10.206;2022-08-07T02:25:39;12.23;;;9.50;;
45728;SDS011;31439;53.512;10.206;2022-08-07T02:28:05;12.77;;;9.45;;
45728;SDS011;31439;53.512;10.206;2022-08-07T02:30:32;13.90;;;9.40;;
45728;SDS011;31439;53.512;10.206;2022-08-07T02:32:59;13.98;;;9.40;;
45728;SDS011;31439;53.512;10.206;2022-08-07T02:35:26;14.02;;;10.00;;
45728;SDS011;31439;53.512;10.206;2022-08-07T02:37:52;13.20;;;9.43;;
45728;SDS011;31439;53.512;10.206;2022-08-07T02:40:21;16.75;;;9.95;;
45728;SDS011;31439;53.512;10.206;2022-08-07T02:42:50;14.32;;;10.27;;
45728;SDS011;31439;53.512;10.206;2022-08-07T02:45:16;15.45;;;9.93;;
45728;SDS011;31439;53.512;10.206;2022-08-07T02:47:43;16.77;;;10.30;;
45728;SDS011;31439;53.512;10.206;2022-08-07T02:50:09;15.65;;;9.70;;
45728;SDS011;31439;53.512;10.206;2022-08-07T02:52:39;11.60;;;8.93;;
45728;SDS011;31439;53.512;10.206;2022-08-07T02:55:09;13.93;;;9.38;;
45728;SDS011;31439;53.512;10.206;2022-08-07T02:57:56;13.68;;;9.52;;
45728;SDS011;31439;53.512;10.206;2022-08-07T03:00:27;14.50;;;9.27;;
45728;SDS011;31439;53.512;10.206;2022-08-07T03:02:54;13.52;;;9.73;;
45728;SDS011;31439;53.512;10.206;2022-08-07T03:05:20;16.35;;;9.43;;
45728;SDS011;31439;53.512;10.206;2022-08-07T03:07:48;13.73;;;8.75;;
45728;SDS011;31439;53.512;10.206;2022-08-07T03:10:14;13.15;;;9.23;;
45728;SDS011;31439;53.512;10.206;2022-08-07T03:12:41;13.48;;;8.32;;
45728;SDS011;31439;53.512;10.206;2022-08-07T03:15:09;12.70;;;9.10;;
45728;SDS011;31439;53.512;10.206;2022-08-07T03:17:38;12.70;;;9.38;;
45728;SDS011;31439;53.512;10.206;2022-08-07T03:20:09;13.10;;;9.75;;
45728;SDS011;31439;53.512;10.206;2022-08-07T03:22:36;13.52;;;9.35;;
45728;SDS011;31439;53.512;10.206;2022-08-07T03:25:02;16.25;;;9.43;;
45728;SDS011;31439;53.512;10.206;2022-08-07T03:27:29;12.88;;;8.98;;
45728;SDS011;31439;53.512;10.206;2022-08-07T03:29:55;11.90;;;9.00;;
45728;SDS011;31439;53.512;10.206;2022-08-07T03:32:22;14.02;;;8.70;;
45728;SDS011;31439;53.512;10.206;2022-08-07T03:34:50;11.73;;;8.52;;
45728;SDS011;31439;53.512;10.206;2022-08-07T03:37:20;12.75;;;9.50;;
45728;SDS011;31439;53.512;10.206;2022-08-07T03:39:46;12.38;;;8.63;;
45728;SDS011;31439;53.512;10.206;2022-08-07T03:42:13;12.25;;;8.40;;
45728;SDS011;31439;53.512;10.206;2022-08-07T03:44:41;11.70;;;8.68;;
45728;SDS011;31439;53.512;10.206;2022-08-07T03:47:07;11.90;;;8.60;;
45728;SDS011;31439;53.512;10.206;2022-08-07T03:49:35;12.88;;;9.02;;
45728;SDS011;31439;53.512;10.206;2022-08-07T03:52:00;13.82;;;8.95;;
45728;SDS011;31439;53.512;10.206;2022-08-07T03:54:27;16.48;;;8.93;;
45728;SDS011;31439;53.512;10.206;2022-08-07T03:56:53;16.25;;;9.38;;
45728;SDS011;31439;53.512;10.206;2022-08-07T03:59:20;12.00;;;8.60;;
45728;SDS011;31439;53.512;10.206;2022-08-07T04:01:46;11.20;;;8.32;;
45728;SDS011;31439;53.512;10.206;2022-08-07T04:04:14;14.52;;;8.55;;
45728;SDS011;31439;53.512;10.206;2022-08-07T04:06:41;12.32;;;8.38;;
45728;SDS011;31439;53.512;10.206;2022-08-07T04:09:08;12.38;;;8.90;;
45728;SDS011;31439;53.512;10.206;2022-08-07T04:11:33;11.18;;;8.68;;
45728;SDS011;31439;53.512;10.206;2022-08-07T04:14:01;12.00;;;8.50;;
45728;SDS011;31439;53.512;10.206;2022-08-07T04:16:28;10.95;;;8.52;;
45728;SDS011;31439;53.512;10.206;2022-08-07T04:18:54;13.27;;;8.38;;
45728;SDS011;31439;53.512;10.206;2022-08-07T04:21:20;12.27;;;8.90;;
45728;SDS011;31439;53.512;10.206;2022-08-07T04:23:45;11.68;;;8.43;;
45728;SDS011;31439;53.512;10.206;2022-08-07T04:26:13;12.18;;;8.68;;
45728;SDS011;31439;53.512;10.206;2022-08-07T04:28:41;12.93;;;8.57;;
45728;SDS011;31439;53.512;10.206;2022-08-07T04:31:08;12.52;;;8.85;;
45728;SDS011;31439;53.512;10.206;2022-08-07T04:33:37;12.45;;;8.77;;
45728;SDS011;31439;53.512;10.206;2022-08-07T04:36:05;11.65;;;9.50;;
45728;SDS011;31439;53.512;10.206;2022-08-07T04:38:32;13.45;;;9.85;;
45728;SDS011;31439;53.512;10.206;2022-08-07T04:41:02;12.15;;;9.13;;
45728;SDS011;31439;53.512;10.206;2022-08-07T04:43:29;13.68;;;9.93;;
45728;SDS011;31439;53.512;10.206;2022-08-07T04:46:07;12.75;;;9.48;;
45728;SDS011;31439;53.512;10.206;2022-08-07T04:51:17;16.90;;;10.82;;
45728;SDS011;31439;53.512;10.206;2022-08-07T04:53:58;13.60;;;10.10;;
45728;SDS011;31439;53.512;10.206;2022-08-07T04:59:13;13.32;;;9.65;;
45728;SDS011;31439;53.512;10.206;2022-08-07T05:08:17;17.90;;;10.75;;
45728;SDS011;31439;53.512;10.206;2022-08-07T05:10:20;15.23;;;10.23;;
45728;SDS011;31439;53.512;10.206;2022-08-07T05:12:59;18.33;;;10.98;;
45728;SDS011;31439;53.512;10.206;2022-08-07T05:15:33;15.50;;;10.85;;
45728;SDS011;31439;53.512;10.206;2022-08-07T05:18:06;16.55;;;10.63;;
45728;SDS011;31439;53.512;10.206;2022-08-07T05:20:39;13.38;;;10.00;;
45728;SDS011;31439;53.512;10.206;2022-08-07T05:23:09;15.60;;;9.90;;
45728;SDS011;31439;53.512;10.206;2022-08-07T05:25:38;14.63;;;10.02;;
45728;SDS011;31439;53.512;10.206;2022-08-07T05:28:06;13.48;;;9.57;;
45728;SDS011;31439;53.512;10.206;2022-08-07T05:30:33;14.27;;;11.05;;
45728;SDS011;31439;53.512;10.206;2022-08-07T05:33:00;17.77;;;11.00;;
45728;SDS011;31439;53.512;10.206;2022-08-07T05:35:27;14.90;;;11.07;;
45728;SDS011;31439;53.512;10.206;2022-08-07T05:37:55;16.42;;;10.70;;
45728;SDS011;31439;53.512;10.206;2022-08-07T05:40:22;17.27;;;10.82;;
45728;SDS011;31439;53.512;10.206;2022-08-07T05:42:47;13.30;;;9.90;;
45728;SDS011;31439;53.512;10.206;2022-08-07T05:45:14;16.35;;;10.45;;
45728;SDS011;31439;53.512;10.206;2022-08-07T05:47:40;15.85;;;10.60;;
45728;SDS011;31439;53.512;10.206;2022-08-07T05:50:06;14.75;;;10.63;;
45728;SDS011;31439;53.512;10.206;2022-08-07T05:52:33;12.82;;;9.90;;
45728;SDS011;31439;53.512;10.206;2022-08-07T05:55:00;14.70;;;10.73;;
45728;SDS011;31439;53.512;10.206;2022-08-07T05:57:26;15.82;;;10.45;;
45728;SDS011;31439;53.512;10.206;2022-08-07T05:59:53;17.08;;;10.70;;
45728;SDS011;31439;53.512;10.206;2022-08-07T06:02:20;12.80;;;9.80;;
45728;SDS011;31439;53.512;10.206;2022-08-07T06:04:50;15.10;;;10.57;;
45728;SDS011;31439;53.512;10.206;2022-08-07T06:07:19;15.95;;;10.82;;
45728;SDS011;31439;53.512;10.206;2022-08-07T06:09:45;16.58;;;9.65;;
45728;SDS011;31439;53.512;10.206;2022-08-07T06:12:12;15.48;;;10.05;;
45728;SDS011;31439;53.512;10.206;2022-08-07T06:14:38;14.23;;;10.00;;
45728;SDS011;31439;53.512;10.206;2022-08-07T06:17:04;14.07;;;10.32;;
45728;SDS011;31439;53.512;10.206;2022-08-07T06:19:30;13.85;;;10.07;;
45728;SDS011;31439;53.512;10.206;2022-08-07T06:21:56;14.27;;;9.45;;
45728;SDS011;31439;53.512;10.206;2022-08-07T06:24:22;14.23;;;9.73;;
45728;SDS011;31439;53.512;10.206;2022-08-07T06:26:48;13.70;;;9.55;;
45728;SDS011;31439;53.512;10.206;2022-08-07T06:29:14;14.25;;;9.45;;
45728;SDS011;31439;53.512;10.206;2022-08-07T06:31:39;14.65;;;9.48;;
45728;SDS011;31439;53.512;10.206;2022-08-07T06:34:05;13.48;;;8.82;;
45728;SDS011;31439;53.512;10.206;2022-08-07T06:36:30;14.50;;;9.40;;
45728;SDS011;31439;53.512;10.206;2022-08-07T06:38:56;14.27;;;9.18;;
45728;SDS011;31439;53.512;10.206;2022-08-07T06:44:02;12.48;;;7.35;;
45728;SDS011;31439;53.512;10.206;2022-08-07T06:46:30;11.93;;;7.25;;
45728;SDS011;31439;53.512;10.206;2022-08-07T06:48:56;13.60;;;7.28;;
45728;SDS011;31439;53.512;10.206;2022-08-07T06:51:23;10.32;;;7.20;;
45728;SDS011;31439;53.512;10.206;2022-08-07T06:53:53;13.98;;;8.02;;
45728;SDS011;31439;53.512;10.206;2022-08-07T06:56:21;12.35;;;7.15;;
45728;SDS011;31439;53.512;10.206;2022-08-07T06:59:06;13.07;;;6.90;;
45728;SDS011;31439;53.512;10.206;2022-08-07T07:01:40;10.52;;;6.97;;
45728;SDS011;31439;53.512;10.206;2022-08-07T07:04:08;10.63;;;6.20;;
45728;SDS011;31439;53.512;10.206;2022-08-07T07:06:34;9.65;;;6.45;;
45728;SDS011;31439;53.512;10.206;2022-08-07T07:14:35;9.70;;;5.00;;
45728;SDS011;31439;53.512;10.206;2022-08-07T07:17:03;9.50;;;5.25;;
45728;SDS011;31439;53.512;10.206;2022-08-07T07:19:37;7.70;;;4.53;;
45728;SDS011;31439;53.512;10.206;2022-08-07T07:22:08;7.65;;;4.72;;
45728;SDS011;31439;53.512;10.206;2022-08-07T07:24:34;10.40;;;5.10;;
45728;SDS011;31439;53.512;10.206;2022-08-07T07:27:02;7.32;;;4.75;;
45728;SDS011;31439;53.512;10.206;2022-08-07T07:29:32;6.75;;;4.60;;
45728;SDS011;31439;53.512;10.206;2022-08-07T07:32:02;9.32;;;4.68;;
45728;SDS011;31439;53.512;10.206;2022-08-07T07:34:32;7.13;;;4.53;;
45728;SDS011;31439;53.512;10.206;2022-08-07T07:37:01;7.93;;;4.35;;
45728;SDS011;31439;53.512;10.206;2022-08-07T07:39:29;9.02;;;5.28;;
45728;SDS011;31439;53.512;10.206;2022-08-07T07:41:56;6.85;;;4.75;;
45728;SDS011;31439;53.512;10.206;2022-08-07T07:44:24;6.95;;;4.80;;
45728;SDS011;31439;53.512;10.206;2022-08-07T07:46:53;7.43;;;4.45;;
45728;SDS011;31439;53.512;10.206;2022-08-07T07:49:21;7.35;;;4.68;;
45728;SDS011;31439;53.512;10.206;2022-08-07T07:51:48;6.82;;;4.50;;
45728;SDS011;31439;53.512;10.206;2022-08-07T07:54:21;9.25;;;4.35;;
45728;SDS011;31439;53.512;10.206;2022-08-07T07:56:51;7.10;;;4.57;;
45728;SDS011;31439;53.512;10.206;2022-08-07T07:59:19;6.57;;;4.50;;
45728;SDS011;31439;53.512;10.206;2022-08-07T08:01:45;6.03;;;4.40;;
45728;SDS011;31439;53.512;10.206;2022-08-07T08:04:13;9.13;;;5.20;;
45728;SDS011;31439;53.512;10.206;2022-08-07T08:06:41;7.18;;;4.75;;
45728;SDS011;31439;53.512;10.206;2022-08-07T08:09:12;7.43;;;4.63;;
45728;SDS011;31439;53.512;10.206;2022-08-07T08:11:40;7.47;;;4.65;;
45728;SDS011;31439;53.512;10.206;2022-08-07T08:14:14;8.30;;;4.45;;
45728;SDS011;31439;53.512;10.206;2022-08-07T08:16:41;7.32;;;4.95;;
45728;SDS011;31439;53.512;10.206;2022-08-07T08:19:09;5.75;;;4.28;;
45728;SDS011;31439;53.512;10.206;2022-08-07T08:21:38;6.80;;;4.47;;
45728;SDS011;31439;53.512;10.206;2022-08-07T08:24:28;6.55;;;4.30;;
45728;SDS011;31439;53.512;10.206;2022-08-07T08:27:17;5.43;;;3.95;;
45728;SDS011;31439;53.512;10.206;2022-08-07T08:29:48;6.75;;;4.30;;
45728;SDS011;31439;53.512;10.206;2022-08-07T08:32:20;6.97;;;3.97;;
45728;SDS011;31439;53.512;10.206;2022-08-07T08:34:48;6.40;;;4.05;;
45728;SDS011;31439;53.512;10.206;2022-08-07T08:37:15;8.02;;;4.35;;
45728;SDS011;31439;53.512;10.206;2022-08-07T08:39:43;7.07;;;4.70;;
45728;SDS011;31439;53.512;10.206;2022-08-07T08:59:39;7.93;;;4.20;;
45728;SDS011;31439;53.512;10.206;2022-08-07T09:11:34;8.05;;;4.05;;
45728;SDS011;31439;53.512;10.206;2022-08-07T09:16:28;7.00;;;4.07;;
45728;SDS011;31439;53.512;10.206;2022-08-07T09:19:16;5.15;;;3.83;;
45728;SDS011;31439;53.512;10.206;2022-08-07T09:25:24;6.13;;;3.80;;
45728;SDS011;31439;53.512;10.206;2022-08-07T09:33:36;7.07;;;4.03;;
45728;SDS011;31439;53.512;10.206;2022-08-07T09:36:32;6.63;;;3.90;;
45728;SDS011;31439;53.512;10.206;2022-08-07T09:39:08;8.23;;;4.10;;
45728;SDS011;31439;53.512;10.206;2022-08-07T09:48:40;7.07;;;3.97;;
45728;SDS011;31439;53.512;10.206;2022-08-07T10:25:23;7.32;;;3.88;;
45728;SDS011;31439;53.512;10.206;2022-08-07T10:28:15;6.28;;;4.40;;
45728;SDS011;31439;53.512;10.206;2022-08-07T10:31:02;6.25;;;3.97;;
45728;SDS011;31439;53.512;10.206;2022-08-07T10:42:10;7.15;;;4.18;;
45728;SDS011;31439;53.512;10.206;2022-08-07T10:47:46;5.00;;;3.75;;
45728;SDS011;31439;53.512;10.206;2022-08-07T11:03:42;6.55;;;3.75;;
45728;SDS011;31439;53.512;10.206;2022-08-07T11:06:18;6.28;;;4.18;;
45728;SDS011;31439;53.512;10.206;2022-08-07T11:08:57;5.30;;;3.90;;
45728;SDS011;31439;53.512;10.206;2022-08-07T11:11:36;8.05;;;3.83;;
45728;SDS011;31439;53.512;10.206;2022-08-07T11:14:19;6.70;;;3.97;;
45728;SDS011;31439;53.512;10.206;2022-08-07T11:16:55;5.38;;;3.50;;
45728;SDS011;31439;53.512;10.206;2022-08-07T11:19:52;4.60;;;3.75;;
45728;SDS011;31439;53.512;10.206;2022-08-07T11:25:03;6.88;;;4.03;;
45728;SDS011;31439;53.512;10.206;2022-08-07T11:34:00;5.40;;;4.00;;
45728;SDS011;31439;53.512;10.206;2022-08-07T11:39:14;6.43;;;4.40;;
45728;SDS011;31439;53.512;10.206;2022-08-07T11:45:19;5.85;;;3.60;;
45728;SDS011;31439;53.512;10.206;2022-08-07T11:50:48;7.45;;;3.70;;
45728;SDS011;31439;53.512;10.206;2022-08-07T11:53:37;6.45;;;3.97;;
45728;SDS011;31439;53.512;10.206;2022-08-07T11:56:24;6.32;;;3.60;;
45728;SDS011;31439;53.512;10.206;2022-08-07T12:02:08;6.35;;;3.60;;
45728;SDS011;31439;53.512;10.206;2022-08-07T12:07:30;4.85;;;3.58;;
45728;SDS011;31439;53.512;10.206;2022-08-07T12:12:52;6.35;;;4.43;;
45728;SDS011;31439;53.512;10.206;2022-08-07T12:15:33;4.60;;;3.50;;
45728;SDS011;31439;53.512;10.206;2022-08-07T12:20:59;4.38;;;3.63;;
45728;SDS011;31439;53.512;10.206;2022-08-07T12:23:49;5.43;;;3.75;;
45728;SDS011;31439;53.512;10.206;2022-08-07T12:26:47;5.13;;;4.10;;
45728;SDS011;31439;53.512;10.206;2022-08-07T12:34:44;6.30;;;3.60;;
45728;SDS011;31439;53.512;10.206;2022-08-07T12:37:20;7.15;;;3.75;;
45728;SDS011;31439;53.512;10.206;2022-08-07T12:39:50;8.23;;;3.55;;
45728;SDS011;31439;53.512;10.206;2022-08-07T12:42:19;4.43;;;3.13;;
45728;SDS011;31439;53.512;10.206;2022-08-07T12:44:48;5.13;;;3.20;;
45728;SDS011;31439;53.512;10.206;2022-08-07T12:55:39;5.75;;;3.10;;
45728;SDS011;31439;53.512;10.206;2022-08-07T13:00:59;5.40;;;4.00;;
45728;SDS011;31439;53.512;10.206;2022-08-07T13:06:37;4.82;;;3.05;;
45728;SDS011;31439;53.512;10.206;2022-08-07T13:09:26;5.43;;;3.05;;
45728;SDS011;31439;53.512;10.206;2022-08-07T13:12:06;4.82;;;3.30;;
45728;SDS011;31439;53.512;10.206;2022-08-07T13:18:16;4.63;;;3.13;;
45728;SDS011;31439;53.512;10.206;2022-08-07T13:23:42;5.18;;;3.50;;
45728;SDS011;31439;53.512;10.206;2022-08-07T13:26:16;4.97;;;3.20;;
45728;SDS011;31439;53.512;10.206;2022-08-07T13:28:47;5.22;;;3.13;;
45728;SDS011;31439;53.512;10.206;2022-08-07T13:31:24;4.28;;;3.30;;
45728;SDS011;31439;53.512;10.206;2022-08-07T13:34:00;5.53;;;3.40;;
45728;SDS011;31439;53.512;10.206;2022-08-07T13:36:39;4.07;;;3.08;;
45728;SDS011;31439;53.512;10.206;2022-08-07T13:39:28;4.25;;;3.22;;
45728;SDS011;31439;53.512;10.206;2022-08-07T13:42:24;4.55;;;3.10;;
45728;SDS011;31439;53.512;10.206;2022-08-07T13:44:51;5.38;;;2.90;;
45728;SDS011;31439;53.512;10.206;2022-08-07T13:47:18;4.95;;;3.30;;
45728;SDS011;31439;53.512;10.206;2022-08-07T13:49:46;5.03;;;3.20;;
45728;SDS011;31439;53.512;10.206;2022-08-07T13:52:13;5.35;;;3.58;;
45728;SDS011;31439;53.512;10.206;2022-08-07T13:54:43;5.75;;;3.40;;
45728;SDS011;31439;53.512;10.206;2022-08-07T13:57:09;5.43;;;3.25;;
45728;SDS011;31439;53.512;10.206;2022-08-07T13:59:42;4.50;;;3.38;;
45728;SDS011;31439;53.512;10.206;2022-08-07T14:02:18;5.28;;;3.50;;
45728;SDS011;31439;53.512;10.206;2022-08-07T14:05:03;7.17;;;3.83;;
45728;SDS011;31439;53.512;10.206;2022-08-07T14:07:37;6.10;;;3.53;;
45728;SDS011;31439;53.512;10.206;2022-08-07T14:10:08;5.05;;;3.47;;
45728;SDS011;31439;53.512;10.206;2022-08-07T14:15:47;8.00;;;3.35;;
45728;SDS011;31439;53.512;10.206;2022-08-07T14:18:21;7.30;;;4.72;;
45728;SDS011;31439;53.512;10.206;2022-08-07T14:20:52;6.78;;;4.97;;
45728;SDS011;31439;53.512;10.206;2022-08-07T14:24:00;4.85;;;3.70;;
45728;SDS011;31439;53.512;10.206;2022-08-07T14:26:38;5.20;;;3.63;;
45728;SDS011;31439;53.512;10.206;2022-08-07T14:29:14;6.55;;;3.90;;
45728;SDS011;31439;53.512;10.206;2022-08-07T14:31:45;3.72;;;3.22;;
45728;SDS011;31439;53.512;10.206;2022-08-07T14:34:13;4.75;;;3.42;;
45728;SDS011;31439;53.512;10.206;2022-08-07T14:36:41;5.93;;;3.45;;
45728;SDS011;31439;53.512;10.206;2022-08-07T14:39:07;5.40;;;3.35;;
45728;SDS011;31439;53.512;10.206;2022-08-07T14:41:35;5.20;;;3.47;;
45728;SDS011;31439;53.512;10.206;2022-08-07T14:44:06;6.00;;;3.38;;
45728;SDS011;31439;53.512;10.206;2022-08-07T14:46:34;4.20;;;3.17;;
45728;SDS011;31439;53.512;10.206;2022-08-07T14:49:02;6.80;;;4.68;;
45728;SDS011;31439;53.512;10.206;2022-08-07T14:51:30;6.30;;;3.40;;
45728;SDS011;31439;53.512;10.206;2022-08-07T14:53:58;7.10;;;3.58;;
45728;SDS011;31439;53.512;10.206;2022-08-07T14:56:27;4.43;;;3.20;;
45728;SDS011;31439;53.512;10.206;2022-08-07T14:58:55;5.35;;;3.20;;
45728;SDS011;31439;53.512;10.206;2022-08-07T15:01:31;6.22;;;3.30;;
45728;SDS011;31439;53.512;10.206;2022-08-07T15:04:03;5.13;;;3.55;;
45728;SDS011;31439;53.512;10.206;2022-08-07T15:06:31;5.07;;;3.28;;
45728;SDS011;31439;53.512;10.206;2022-08-07T15:09:17;4.00;;;3.20;;
45728;SDS011;31439;53.512;10.206;2022-08-07T15:11:53;6.45;;;3.70;;
45728;SDS011;31439;53.512;10.206;2022-08-07T15:14:27;6.97;;;3.42;;
45728;SDS011;31439;53.512;10.206;2022-08-07T15:17:10;5.82;;;3.40;;
45728;SDS011;31439;53.512;10.206;2022-08-07T15:19:39;4.10;;;3.47;;
45728;SDS011;31439;53.512;10.206;2022-08-07T15:22:20;4.65;;;3.40;;
45728;SDS011;31439;53.512;10.206;2022-08-07T15:24:54;4.40;;;3.33;;
45728;SDS011;31439;53.512;10.206;2022-08-07T15:27:24;7.00;;;3.10;;
45728;SDS011;31439;53.512;10.206;2022-08-07T15:29:56;7.75;;;5.88;;
45728;SDS011;31439;53.512;10.206;2022-08-07T15:32:32;5.80;;;3.47;;
45728;SDS011;31439;53.512;10.206;2022-08-07T15:35:03;5.53;;;3.17;;
45728;SDS011;31439;53.512;10.206;2022-08-07T15:37:31;5.32;;;2.90;;
45728;SDS011;31439;53.512;10.206;2022-08-07T15:42:50;5.20;;;3.28;;
45728;SDS011;31439;53.512;10.206;2022-08-07T15:48:19;4.78;;;3.30;;
45728;SDS011;31439;53.512;10.206;2022-08-07T15:50:49;4.88;;;3.15;;
45728;SDS011;31439;53.512;10.206;2022-08-07T15:56:31;5.22;;;3.22;;
45728;SDS011;31439;53.512;10.206;2022-08-07T15:59:00;4.90;;;3.33;;
45728;SDS011;31439;53.512;10.206;2022-08-07T16:04:04;4.80;;;3.05;;
45728;SDS011;31439;53.512;10.206;2022-08-07T16:06:41;4.82;;;3.25;;
45728;SDS011;31439;53.512;10.206;2022-08-07T16:12:08;4.13;;;2.88;;
45728;SDS011;31439;53.512;10.206;2022-08-07T16:22:42;3.65;;;3.10;;
45728;SDS011;31439;53.512;10.206;2022-08-07T16:34:07;3.72;;;2.90;;
45728;SDS011;31439;53.512;10.206;2022-08-07T16:37:12;5.47;;;3.40;;
45728;SDS011;31439;53.512;10.206;2022-08-07T16:51:56;4.95;;;3.15;;
45728;SDS011;31439;53.512;10.206;2022-08-07T17:04:16;5.00;;;3.30;;
45728;SDS011;31439;53.512;10.206;2022-08-07T17:09:53;3.97;;;2.92;;
45728;SDS011;31439;53.512;10.206;2022-08-07T17:12:40;6.68;;;3.40;;
45728;SDS011;31439;53.512;10.206;2022-08-07T17:15:18;5.25;;;3.25;;
45728;SDS011;31439;53.512;10.206;2022-08-07T17:18:09;4.68;;;3.40;;
45728;SDS011;31439;53.512;10.206;2022-08-07T17:20:42;5.22;;;3.15;;
45728;SDS011;31439;53.512;10.206;2022-08-07T17:29:15;4.72;;;3.15;;
45728;SDS011;31439;53.512;10.206;2022-08-07T17:31:52;4.88;;;2.83;;
45728;SDS011;31439;53.512;10.206;2022-08-07T17:34:41;3.85;;;2.80;;
45728;SDS011;31439;53.512;10.206;2022-08-07T17:37:19;3.10;;;2.70;;
45728;SDS011;31439;53.512;10.206;2022-08-07T17:40:09;7.95;;;2.97;;
45728;SDS011;31439;53.512;10.206;2022-08-07T17:42:55;4.65;;;2.70;;
45728;SDS011;31439;53.512;10.206;2022-08-07T17:45:49;4.25;;;3.00;;
45728;SDS011;31439;53.512;10.206;2022-08-07T17:48:22;5.57;;;2.97;;
45728;SDS011;31439;53.512;10.206;2022-08-07T17:56:05;4.65;;;2.80;;
45728;SDS011;31439;53.512;10.206;2022-08-07T18:04:22;3.78;;;2.80;;
45728;SDS011;31439;53.512;10.206;2022-08-07T18:09:30;5.57;;;2.70;;
45728;SDS011;31439;53.512;10.206;2022-08-07T18:12:04;6.38;;;3.22;;
45728;SDS011;31439;53.512;10.206;2022-08-07T18:14:48;5.25;;;3.10;;
45728;SDS011;31439;53.512;10.206;2022-08-07T18:20:04;5.95;;;3.30;;
45728;SDS011;31439;53.512;10.206;2022-08-07T18:25:21;5.38;;;3.20;;
45728;SDS011;31439;53.512;10.206;2022-08-07T18:27:58;4.43;;;3.08;;
45728;SDS011;31439;53.512;10.206;2022-08-07T18:30:50;5.10;;;3.42;;
45728;SDS011;31439;53.512;10.206;2022-08-07T18:59:26;5.97;;;4.10;;
45728;SDS011;31439;53.512;10.206;2022-08-07T19:05:56;5.18;;;2.58;;
45728;SDS011;31439;53.512;10.206;2022-08-07T19:11:09;3.95;;;2.60;;
45728;SDS011;31439;53.512;10.206;2022-08-07T19:16:26;5.50;;;2.65;;
45728;SDS011;31439;53.512;10.206;2022-08-07T19:21:56;4.35;;;2.85;;
45728;SDS011;31439;53.512;10.206;2022-08-07T19:24:35;4.20;;;2.60;;
45728;SDS011;31439;53.512;10.206;2022-08-07T19:27:05;6.22;;;2.58;;
45728;SDS011;31439;53.512;10.206;2022-08-07T19:29:35;8.90;;;2.88;;
45728;SDS011;31439;53.512;10.206;2022-08-07T19:32:09;4.22;;;2.70;;
45728;SDS011;31439;53.512;10.206;2022-08-07T19:34:45;4.00;;;2.35;;
45728;SDS011;31439;53.512;10.206;2022-08-07T19:37:16;5.13;;;2.72;;
45728;SDS011;31439;53.512;10.206;2022-08-07T19:39:46;5.25;;;2.72;;
45728;SDS011;31439;53.512;10.206;2022-08-07T19:42:20;4.20;;;2.55;;
45728;SDS011;31439;53.512;10.206;2022-08-07T19:44:47;4.57;;;2.45;;
45728;SDS011;31439;53.512;10.206;2022-08-07T19:47:15;3.85;;;2.25;;
45728;SDS011;31439;53.512;10.206;2022-08-07T19:49:47;3.35;;;2.45;;
45728;SDS011;31439;53.512;10.206;2022-08-07T19:52:17;4.35;;;2.60;;
45728;SDS011;31439;53.512;10.206;2022-08-07T19:54:47;4.60;;;2.63;;